Time;durP1;ratioP1;P1;durP2;ratioP2;P2;SDS_P1;SDS_P2;PMS_P1;PMS_P2;Temp;Humidity;BMP_temperature;BMP_pressure;BME280_temperature;BME280_humidity;BME280_pressure;Samples;Min_cycle;Max_cycle;Signal;HPM_P1;HPM_P2
2022/08/16 00:00:20;;;;;;;;;;;;;;;23.43;71.12;98411.92;1713846;82;20085;-69
2022/08/16 00:02:47;;;;;;;;;;;;;;;23.41;71.31;98411.39;1712304;83;20113;-68
2022/08/16 00:05:13;;;;;;;;;;;;;;;23.37;71.50;98414.38;1714375;83;20102;-68
2022/08/16 00:07:40;;;;;;;;;;;;;;;23.34;71.66;98414.36;1714392;83;22085;-68
2022/08/16 00:10:08;;;;;;;;;;;;;;;23.33;71.81;98415.47;1714211;83;20114;-69
2022/08/16 00:12:34;;;;;;;;;;;;;;;23.32;71.84;98411.12;1713658;82;20531;-69
2022/08/16 00:15:04;;;;;;;;;;;;;;;23.32;71.95;98402.98;1713971;83;20086;-69
2022/08/16 00:17:31;;;;;;;;;;;;;;;23.36;71.95;98404.03;1714341;82;20085;-69
2022/08/16 00:19:57;;;;;;;;;;;;;;;23.40;71.92;98402.44;1714443;83;21094;-70
2022/08/16 00:22:23;;;;;;;;;;;;;;;23.44;71.80;98395.34;1712175;82;20201;-70
2022/08/16 00:24:49;;;;;;;;;;;;;;;23.45;71.76;98391.55;1714305;83;20184;-69
2022/08/16 00:27:16;;;;;;;;;;;;;;;23.49;71.74;98387.74;1714270;83;20097;-69
2022/08/16 00:29:42;;;;;;;;;;;;;;;23.51;71.58;98393.16;1714432;83;20077;-69
2022/08/16 00:32:08;;;;;;;;;;;;;;;23.50;71.72;98392.06;1714313;83;21169;-69
2022/08/16 00:34:35;;;;;;;;;;;;;;;23.51;71.62;98382.84;1708310;82;20133;-70
2022/08/16 00:37:02;;;;;;;;;;;;;;;23.49;71.65;98387.17;1697321;83;20121;-68
2022/08/16 00:39:29;;;;;;;;;;;;;;;23.50;71.71;98388.81;1714243;83;20085;-69
2022/08/16 00:41:56;;;;;;;;;;;;;;;23.52;71.77;98391.23;1714330;83;20169;-68
2022/08/16 00:44:22;;;;;;;;;;;;;;;23.53;71.78;98384.72;1712547;83;21147;-69
2022/08/16 00:46:56;;;;;;;;;;;;;;;23.52;71.75;98379.83;1717615;82;20159;-69
2022/08/16 00:49:22;;;;;;;;;;;;;;;23.52;71.76;98379.83;1734198;81;20097;-68
2022/08/16 00:51:50;;;;;;;;;;;;;;;23.55;71.77;98386.60;1731964;81;20109;-69
2022/08/16 00:54:18;;;;;;;;;;;;;;;23.58;71.69;98386.05;1733882;82;20116;-70
2022/08/16 00:56:45;;;;;;;;;;;;;;;23.60;71.61;98386.03;1734276;82;21143;-69
2022/08/16 00:59:12;;;;;;;;;;;;;;;23.60;71.53;98392.00;1734217;82;20194;-70
2022/08/16 01:01:39;;;;;;;;;;;;;;;23.59;71.47;98390.40;1734244;82;20084;-69
2022/08/16 01:04:06;;;;;;;;;;;;;;;23.55;71.52;98392.03;1731770;81;20183;-68
2022/08/16 01:06:33;;;;;;;;;;;;;;;23.50;71.75;98386.09;1734119;82;20439;-68
2022/08/16 01:09:00;;;;;;;;;;;;;;;23.49;71.82;98387.74;1709306;82;21989;-69
2022/08/16 01:11:26;;;;;;;;;;;;;;;23.49;71.87;98389.89;1732223;82;20109;-69
2022/08/16 01:13:55;;;;;;;;;;;;;;;23.46;71.82;98395.90;1730696;81;20434;-69
2022/08/16 01:16:23;;;;;;;;;;;;;;;23.48;71.78;98394.25;1734171;81;20113;-70
2022/08/16 01:18:54;;;;;;;;;;;;;;;23.49;71.71;98395.31;1734175;81;20096;-68
2022/08/16 01:21:39;;;;;;;;;;;;;;;23.50;71.65;98397.48;1734189;82;21126;-71
2022/08/16 01:24:25;;;;;;;;;;;;;;;23.51;71.56;98397.77;1731528;81;20147;-70
2022/08/16 01:26:54;;;;;;;;;;;;;;;23.50;71.48;98401.56;1734395;81;20438;-69
2022/08/16 01:29:27;;;;;;;;;;;;;;;23.48;71.39;98402.39;1733344;82;20144;-70
2022/08/16 01:31:53;;;;;;;;;;;;;;;23.43;71.46;98405.13;1733667;82;20096;-68
2022/08/16 01:34:20;;;;;;;;;;;;;;;23.34;71.66;98396.18;1731690;81;21143;-69
2022/08/16 01:36:46;;;;;;;;;;;;;;;23.30;71.85;98393.77;1666691;82;20438;-70
2022/08/16 01:39:15;;;;;;;;;;;;;;;23.29;71.96;98389.96;1734250;82;20149;-68
2022/08/16 01:41:42;;;;;;;;;;;;;;;23.27;72.07;98387.54;1707417;82;20096;-69
2022/08/16 01:44:09;;;;;;;;;;;;;;;23.24;72.07;98381.84;1734263;82;20439;-68
2022/08/16 01:46:41;;;;;;;;;;;;;;;23.21;72.17;98375.08;1734133;82;21949;-69
2022/08/16 01:49:13;;;;;;;;;;;;;;;23.22;72.23;98375.36;1734287;81;20231;-69
2022/08/16 01:51:40;;;;;;;;;;;;;;;23.21;72.12;98369.65;1708608;81;20084;-69
2022/08/16 01:54:07;;;;;;;;;;;;;;;23.16;72.13;98365.61;1734118;81;20191;-71
2022/08/16 01:56:36;;;;;;;;;;;;;;;23.13;72.22;98367.52;1733790;82;20406;-69
2022/08/16 01:59:05;;;;;;;;;;;;;;;23.11;72.37;98363.45;1734353;82;21154;-69
2022/08/16 02:01:31;;;;;;;;;;;;;;;23.08;72.37;98364.83;1731348;82;20081;-70
2022/08/16 02:03:58;;;;;;;;;;;;;;;23.07;72.38;98360.47;1732990;82;20140;-69
2022/08/16 02:06:26;;;;;;;;;;;;;;;23.05;72.47;98359.95;1734253;82;20112;-70
2022/08/16 02:08:53;;;;;;;;;;;;;;;23.04;72.58;98358.34;1734131;82;20120;-69
2022/08/16 02:11:22;;;;;;;;;;;;;;;23.05;72.55;98358.59;1732562;82;21098;-68
2022/08/16 02:13:48;;;;;;;;;;;;;;;23.04;72.54;98354.81;1733578;81;20140;-69
2022/08/16 02:16:16;;;;;;;;;;;;;;;23.02;72.56;98356.43;1734236;82;20096;-69
2022/08/16 02:18:42;;;;;;;;;;;;;;;23.00;72.65;98354.55;1734191;81;20465;-68
2022/08/16 02:21:08;;;;;;;;;;;;;;;22.99;72.69;98357.55;1734239;82;20548;-69
2022/08/16 02:23:35;;;;;;;;;;;;;;;22.96;72.77;98358.91;1732056;82;21144;-69
2022/08/16 02:26:02;;;;;;;;;;;;;;;22.97;72.74;98352.38;1734061;81;20096;-69
2022/08/16 02:28:29;;;;;;;;;;;;;;;22.98;72.76;98351.30;1734123;82;20092;-69
2022/08/16 02:30:58;;;;;;;;;;;;;;;22.94;72.74;98345.37;1733379;81;20439;-69
2022/08/16 02:33:26;;;;;;;;;;;;;;;22.89;72.83;98344.81;1731552;81;20438;-69
2022/08/16 02:35:53;;;;;;;;;;;;;;;22.85;72.94;98346.47;1722722;81;21163;-69
2022/08/16 02:38:19;;;;;;;;;;;;;;;22.84;73.12;98347.55;1734096;81;20117;-68
2022/08/16 02:40:46;;;;;;;;;;;;;;;22.85;73.17;98339.70;1734354;82;20525;-68
2022/08/16 02:43:12;;;;;;;;;;;;;;;22.84;73.20;98338.06;1733811;82;20152;-69
2022/08/16 02:45:39;;;;;;;;;;;;;;;22.87;73.18;98339.41;1734230;82;20195;-71
2022/08/16 02:48:07;;;;;;;;;;;;;;;22.84;73.19;98331.28;1733728;81;21155;-69
2022/08/16 02:50:33;;;;;;;;;;;;;;;22.85;73.15;98331.56;1733542;83;20112;-71
2022/08/16 02:53:00;;;;;;;;;;;;;;;22.80;73.14;98318.02;1733274;81;20142;-69
2022/08/16 02:55:26;;;;;;;;;;;;;;;22.78;73.18;98313.43;1733819;81;20431;-69
2022/08/16 02:57:53;;;;;;;;;;;;;;;22.77;73.25;98317.22;1733900;81;20426;-68
2022/08/16 03:00:19;;;;;;;;;;;;;;;22.73;73.29;98320.23;1733692;81;21147;-70
2022/08/16 03:02:45;;;;;;;;;;;;;;;22.70;73.38;98327.02;1733348;81;20410;-69
2022/08/16 03:05:14;;;;;;;;;;;;;;;22.64;73.56;98328.64;1733591;81;20113;-69
2022/08/16 03:07:41;;;;;;;;;;;;;;;22.56;73.79;98326.45;1733528;83;20123;-68
2022/08/16 03:10:10;;;;;;;;;;;;;;;22.52;73.97;98322.69;1733716;81;20414;-69
2022/08/16 03:12:38;;;;;;;;;;;;;;;22.48;74.26;98321.59;1731366;81;20851;-68
2022/08/16 03:15:07;;;;;;;;;;;;;;;22.44;74.34;98313.77;1733301;81;20434;-69
2022/08/16 03:17:35;;;;;;;;;;;;;;;22.43;74.39;98314.30;1733735;81;20120;-68
2022/08/16 03:20:04;;;;;;;;;;;;;;;22.44;74.43;98307.81;1733566;81;20116;-69
2022/08/16 03:22:33;;;;;;;;;;;;;;;22.46;74.31;98308.34;1730925;81;20080;-69
2022/08/16 03:25:04;;;;;;;;;;;;;;;22.46;74.27;98310.23;1733255;81;21450;-69
2022/08/16 03:27:31;;;;;;;;;;;;;;;22.44;74.33;98309.70;1733503;81;20112;-69
2022/08/16 03:29:59;;;;;;;;;;;;;;;22.43;74.39;98306.70;1733681;83;20113;-69
2022/08/16 03:32:26;;;;;;;;;;;;;;;22.41;74.40;98304.29;1733414;83;20109;-69
2022/08/16 03:34:52;;;;;;;;;;;;;;;22.39;74.48;98306.47;1726898;81;20087;-68
2022/08/16 03:37:19;;;;;;;;;;;;;;;22.39;74.45;98306.47;1719735;81;22143;-69
2022/08/16 03:39:45;;;;;;;;;;;;;;;22.39;74.44;98311.06;1733481;83;20100;-71
2022/08/16 03:42:12;;;;;;;;;;;;;;;22.40;74.39;98308.07;1731354;83;20127;-69
2022/08/16 03:44:38;;;;;;;;;;;;;;;22.40;74.38;98296.41;1733548;81;20084;-68
2022/08/16 03:47:05;;;;;;;;;;;;;;;22.41;74.49;98303.47;1733558;83;20088;-69
2022/08/16 03:49:32;;;;;;;;;;;;;;;22.43;74.55;98298.05;1715006;82;21240;-69
2022/08/16 03:51:58;;;;;;;;;;;;;;;22.45;74.63;98299.11;1720297;83;20190;-69
2022/08/16 03:54:27;;;;;;;;;;;;;;;22.51;74.55;98290.70;1717657;81;20401;-69
2022/08/16 03:56:53;;;;;;;;;;;;;;;22.58;74.36;98290.41;1673108;84;20114;-69
2022/08/16 03:59:20;;;;;;;;;;;;;;;22.60;74.16;98290.96;1705009;83;20099;-70
2022/08/16 04:01:48;;;;;;;;;;;;;;;22.66;74.02;98291.22;1720320;83;21164;-70
2022/08/16 04:04:14;;;;;;;;;;;;;;;22.73;73.73;98288.48;1721833;83;20097;-69
2022/08/16 04:06:41;;;;;;;;;;;;;;;22.82;73.46;98294.69;1713156;83;20476;-69
2022/08/16 04:09:07;;;;;;;;;;;;;;;22.86;73.21;98290.35;1704889;83;20102;-69
2022/08/16 04:11:33;;;;;;;;;;;;;;;22.93;72.99;98280.01;1704808;83;20103;-69
2022/08/16 04:14:00;;;;;;;;;;;;;;;23.01;72.66;98278.07;1716293;83;21713;-69
2022/08/16 04:16:26;;;;;;;;;;;;;;;23.08;72.47;98272.61;1674678;84;20439;-70
2022/08/16 04:18:53;;;;;;;;;;;;;;;23.20;72.07;98277.14;1648909;86;20108;-69
2022/08/16 04:21:19;;;;;;;;;;;;;;;23.32;71.65;98280.34;1618346;87;20091;-71
2022/08/16 04:23:45;;;;;;;;;;;;;;;23.41;71.26;98276.52;1642795;86;20103;-72
2022/08/16 04:26:12;;;;;;;;;;;;;;;23.50;70.96;98266.67;1667859;85;21107;-68
2022/08/16 04:28:39;;;;;;;;;;;;;;;23.63;70.66;98267.92;1667705;84;20122;-69
2022/08/16 04:31:05;;;;;;;;;;;;;;;23.78;69.99;98271.87;1667497;84;20122;-69
2022/08/16 04:33:32;;;;;;;;;;;;;;;23.88;69.50;98268.52;1679584;84;20564;-69
2022/08/16 04:35:59;;;;;;;;;;;;;;;23.91;69.09;98273.94;1671779;84;20469;-68
2022/08/16 04:38:26;;;;;;;;;;;;;;;23.92;68.84;98266.06;1668022;84;21120;-70
2022/08/16 04:40:53;;;;;;;;;;;;;;;23.88;68.83;98269.09;1667727;85;20102;-69
2022/08/16 04:43:20;;;;;;;;;;;;;;;23.82;68.70;98256.11;1663345;84;20130;-69
2022/08/16 04:45:46;;;;;;;;;;;;;;;23.84;69.37;98257.17;1674196;84;20121;-71
2022/08/16 04:48:14;;;;;;;;;;;;;;;24.10;69.29;98264.56;1691428;83;20130;-71
2022/08/16 04:50:43;;;;;;;;;;;;;;;24.43;68.73;98267.20;1663365;84;22225;-69
2022/08/16 04:53:11;;;;;;;;;;;;;;;24.80;67.71;98269.79;1669001;84;20116;-69
2022/08/16 04:55:39;;;;;;;;;;;;;;;25.21;66.47;98270.09;1662503;85;20147;-71
2022/08/16 04:58:06;;;;;;;;;;;;;;;25.57;65.29;98266.58;1665225;84;20106;-69
2022/08/16 05:00:33;;;;;;;;;;;;;;;25.88;64.35;98273.69;1662500;85;20158;-70
2022/08/16 05:03:13;;;;;;;;;;;;;;;26.14;63.17;98274.91;1671979;84;21118;-68
2022/08/16 05:05:44;;;;;;;;;;;;;;;26.28;61.93;98267.54;1657441;84;20408;-68
2022/08/16 05:08:11;;;;;;;;;;;;;;;26.28;61.26;98267.54;1674839;83;20118;-68
2022/08/16 05:10:39;;;;;;;;;;;;;;;26.19;61.02;98263.91;1662512;84;20635;-69
2022/08/16 05:13:06;;;;;;;;;;;;;;;26.08;61.04;98258.89;1687135;83;20103;-69
2022/08/16 05:15:33;;;;;;;;;;;;;;;25.99;60.99;98264.80;1680359;84;21281;-68
2022/08/16 05:18:00;;;;;;;;;;;;;;;25.84;61.17;98256.89;1670193;84;20154;-70
2022/08/16 05:20:28;;;;;;;;;;;;;;;25.69;61.37;98255.20;1662671;84;20110;-71
2022/08/16 05:22:55;;;;;;;;;;;;;;;25.60;61.80;98248.83;1673120;84;20419;-69
2022/08/16 05:25:22;;;;;;;;;;;;;;;25.55;61.88;98255.14;1693591;84;20437;-70
2022/08/16 05:27:50;;;;;;;;;;;;;;;25.51;61.77;98241.88;1718381;83;21153;-69
2022/08/16 05:30:18;;;;;;;;;;;;;;;25.44;61.95;98241.42;1720592;82;20101;-71
2022/08/16 05:32:44;;;;;;;;;;;;;;;25.44;61.95;98236.53;1718756;82;20520;-70
2022/08/16 05:35:12;;;;;;;;;;;;;;;25.39;61.79;98227.90;1712751;82;20117;-69
2022/08/16 05:37:40;;;;;;;;;;;;;;;25.36;61.91;98224.40;1711417;82;20161;-69
2022/08/16 05:40:09;;;;;;;;;;;;;;;25.36;61.85;98221.67;1753216;82;21126;-70
2022/08/16 05:42:36;;;;;;;;;;;;;;;25.32;61.79;98223.91;1745327;82;20141;-68
2022/08/16 05:45:04;;;;;;;;;;;;;;;25.28;62.01;98229.15;1729026;82;20422;-69
2022/08/16 05:47:30;;;;;;;;;;;;;;;25.25;61.94;98232.45;1737413;82;20151;-67
2022/08/16 05:49:57;;;;;;;;;;;;;;;25.20;61.96;98236.61;1750890;82;20448;-70
2022/08/16 05:52:24;;;;;;;;;;;;;;;25.12;62.20;98238.63;1730253;83;21079;-69
2022/08/16 05:54:51;;;;;;;;;;;;;;;25.04;62.16;98240.64;1711338;82;20156;-71
2022/08/16 05:57:17;;;;;;;;;;;;;;;24.89;62.71;98240.31;1683810;84;20257;-69
2022/08/16 05:59:46;;;;;;;;;;;;;;;24.79;63.08;98244.53;1724356;83;20134;-69
2022/08/16 06:02:13;;;;;;;;;;;;;;;24.72;63.21;98257.62;1686513;84;20222;-69
2022/08/16 06:04:40;;;;;;;;;;;;;;;24.62;63.39;98256.93;1717942;83;21108;-71
2022/08/16 06:07:08;;;;;;;;;;;;;;;24.53;63.72;98263.58;1711841;83;20537;-69
2022/08/16 06:09:36;;;;;;;;;;;;;;;24.50;63.89;98266.33;1681648;83;21085;-71
2022/08/16 06:12:02;;;;;;;;;;;;;;;24.48;63.78;98267.72;1711942;83;20107;-72
2022/08/16 06:14:29;;;;;;;;;;;;;;;24.48;63.78;98270.44;1718248;83;20192;-71
2022/08/16 06:16:56;;;;;;;;;;;;;;;24.46;63.97;98266.62;1706053;82;21142;-72
2022/08/16 06:19:23;;;;;;;;;;;;;;;24.51;64.21;98273.36;1715868;83;20085;-72
2022/08/16 06:21:51;;;;;;;;;;;;;;;24.68;63.93;98279.70;1714260;83;20114;-70
2022/08/16 06:24:17;;;;;;;;;;;;;;;24.88;63.55;98279.48;1702229;83;20191;-71
2022/08/16 06:26:44;;;;;;;;;;;;;;;25.08;62.87;98278.42;1704822;83;20198;-71
2022/08/16 06:29:10;;;;;;;;;;;;;;;25.25;62.35;98276.00;1698598;83;21780;-70
2022/08/16 06:31:38;;;;;;;;;;;;;;;25.40;61.89;98275.77;1699595;83;20421;-71
2022/08/16 06:34:05;;;;;;;;;;;;;;;25.54;61.52;98282.69;1710298;83;20089;-70
2022/08/16 06:36:33;;;;;;;;;;;;;;;25.63;61.01;98284.43;1679687;83;20164;-70
2022/08/16 06:39:04;;;;;;;;;;;;;;;25.70;60.92;98288.97;1695937;84;20167;-71
2022/08/16 06:41:51;;;;;;;;;;;;;;;25.89;60.58;98281.31;1689216;82;21857;-72
2022/08/16 06:44:19;;;;;;;;;;;;;;;26.08;59.56;98283.42;1692168;82;20454;-77
2022/08/16 06:46:46;;;;;;;;;;;;;;;26.27;58.80;98281.48;1688219;84;20112;-73
2022/08/16 06:49:14;;;;;;;;;;;;;;;26.45;58.24;98275.14;1694233;83;20096;-73
2022/08/16 06:51:41;;;;;;;;;;;;;;;26.58;57.68;98268.89;1695609;84;20163;-70
2022/08/16 06:54:07;;;;;;;;;;;;;;;26.64;57.54;98273.14;1695877;84;21073;-69
2022/08/16 06:56:34;;;;;;;;;;;;;;;26.69;57.25;98277.13;1696007;84;20481;-72
2022/08/16 06:59:02;;;;;;;;;;;;;;;26.70;57.20;98280.09;1693971;83;20189;-71
2022/08/16 07:01:30;;;;;;;;;;;;;;;26.73;57.60;98283.59;1695330;84;20151;-74
2022/08/16 07:03:57;;;;;;;;;;;;;;;26.83;57.32;98282.05;1695838;84;20164;-73
2022/08/16 07:06:25;;;;;;;;;;;;;;;27.02;56.46;98281.92;1696236;83;21984;-74
2022/08/16 07:08:52;;;;;;;;;;;;;;;27.19;56.00;98284.03;1693665;83;20949;-74
2022/08/16 07:11:19;;;;;;;;;;;;;;;27.34;55.52;98283.14;1695871;84;20103;-70
2022/08/16 07:13:47;;;;;;;;;;;;;;;27.51;55.67;98282.49;1695129;83;20103;-71
2022/08/16 07:16:15;;;;;;;;;;;;;;;28.52;54.44;98282.71;1695529;84;20075;-70
2022/08/16 07:18:44;;;;;;;;;;;;;;;29.68;52.02;98275.17;1696076;84;21140;-70
2022/08/16 07:21:12;;;;;;;;;;;;;;;30.28;48.97;98266.31;1695383;84;20107;-70
2022/08/16 07:23:42;;;;;;;;;;;;;;;30.80;47.75;98264.19;1695765;84;20112;-70
2022/08/16 07:26:11;;;;;;;;;;;;;;;31.49;45.61;98260.48;1695921;84;20103;-70
2022/08/16 07:28:38;;;;;;;;;;;;;;;31.67;44.57;98259.77;1695258;84;20453;-72
2022/08/16 07:31:05;;;;;;;;;;;;;;;31.57;44.67;98254.08;1694893;84;21125;-70
2022/08/16 07:33:36;;;;;;;;;;;;;;;31.35;44.86;98259.91;1695681;84;20099;-71
2022/08/16 07:36:04;;;;;;;;;;;;;;;31.08;44.83;98261.22;1691986;83;20174;-70
2022/08/16 07:38:32;;;;;;;;;;;;;;;30.76;45.10;98255.58;1692924;84;20116;-71
2022/08/16 07:40:58;;;;;;;;;;;;;;;30.40;45.61;98260.96;1694240;84;20508;-70
2022/08/16 07:43:25;;;;;;;;;;;;;;;30.16;46.25;98255.22;1693978;83;21151;-70
2022/08/16 07:45:51;;;;;;;;;;;;;;;29.92;47.17;98257.13;1684692;84;20106;-72
2022/08/16 07:48:18;;;;;;;;;;;;;;;29.89;47.29;98251.48;1695830;84;20202;-69
2022/08/16 07:50:46;;;;;;;;;;;;;;;30.37;46.46;98254.79;1687086;83;20112;-72
2022/08/16 07:53:12;;;;;;;;;;;;;;;31.04;45.08;98244.38;1686004;85;20100;-71
2022/08/16 07:55:40;;;;;;;;;;;;;;;31.91;43.27;98243.93;1684779;84;21739;-70
2022/08/16 07:58:07;;;;;;;;;;;;;;;32.78;41.61;98240.67;1685864;84;20469;-72
2022/08/16 08:00:34;;;;;;;;;;;;;;;33.61;39.82;98237.94;1685785;85;20469;-71
2022/08/16 08:03:00;;;;;;;;;;;;;;;34.66;37.78;98233.89;1685091;85;20156;-74
2022/08/16 08:05:27;;;;;;;;;;;;;;;35.58;36.07;98232.45;1699846;84;20131;-72
2022/08/16 08:07:54;;;;;;;;;;;;;;;36.00;34.23;98231.92;1685506;85;21057;-72
2022/08/16 08:10:21;;;;;;;;;;;;;;;36.22;34.75;98231.16;1685691;85;20520;-72
2022/08/16 08:12:49;;;;;;;;;;;;;;;36.80;34.31;98233.73;1685190;85;20414;-71
2022/08/16 08:15:16;;;;;;;;;;;;;;;37.65;32.71;98239.34;1683339;85;20119;-70
2022/08/16 08:17:44;;;;;;;;;;;;;;;38.23;32.02;98239.62;1685338;85;20119;-69
2022/08/16 08:20:18;;;;;;;;;;;;;;;38.93;31.09;98238.66;1692110;83;21126;-68
2022/08/16 08:22:46;;;;;;;;;;;;;;;39.24;29.42;98233.92;1693547;84;20435;-68
2022/08/16 08:25:13;;;;;;;;;;;;;;;38.27;30.70;98246.61;1712699;83;20439;-69
2022/08/16 08:27:41;;;;;;;;;;;;;;;37.19;31.57;98247.62;1712731;84;20117;-71
2022/08/16 08:30:09;;;;;;;;;;;;;;;36.02;33.16;98246.20;1710009;83;20090;-70
2022/08/16 08:32:36;;;;;;;;;;;;;;;34.84;34.51;98254.22;1670557;84;21083;-71
2022/08/16 08:35:05;;;;;;;;;;;;;;;33.97;36.31;98259.23;1690937;84;20103;-71
2022/08/16 08:37:34;;;;;;;;;;;;;;;33.75;36.83;98252.91;1685996;84;20104;-71
2022/08/16 08:40:07;;;;;;;;;;;;;;;34.50;36.07;98248.83;1685995;85;20091;-70
2022/08/16 08:42:34;;;;;;;;;;;;;;;34.99;35.20;98252.04;1686052;85;20125;-70
2022/08/16 08:45:02;;;;;;;;;;;;;;;35.53;34.16;98244.62;1685963;85;21152;-70
2022/08/16 08:47:29;;;;;;;;;;;;;;;36.39;32.26;98243.14;1685918;85;20092;-71
2022/08/16 08:49:57;;;;;;;;;;;;;;;36.96;31.24;98250.45;1697336;83;20096;-67
2022/08/16 08:52:25;;;;;;;;;;;;;;;37.18;30.65;98250.16;1727989;83;20109;-70
2022/08/16 08:54:51;;;;;;;;;;;;;;;37.58;30.13;98251.75;1716663;83;20148;-70
2022/08/16 08:57:19;;;;;;;;;;;;;;;37.58;29.97;98253.13;1699086;83;21218;-72
2022/08/16 09:00:06;;;;;;;;;;;;;;;37.57;30.14;98252.91;1724927;83;20471;-69
2022/08/16 09:02:34;;;;;;;;;;;;;;;37.92;29.78;98253.16;1672306;84;20106;-70
2022/08/16 09:05:01;;;;;;;;;;;;;;;38.11;29.78;98254.37;1703700;83;20167;-70
2022/08/16 09:07:29;;;;;;;;;;;;;;;38.23;29.45;98245.17;1713917;83;20073;-69
2022/08/16 09:09:56;;;;;;;;;;;;;;;38.53;29.51;98249.27;1696791;83;21221;-68
2022/08/16 09:12:24;;;;;;;;;;;;;;;38.78;28.91;98240.55;1722648;83;20293;-70
2022/08/16 09:14:52;;;;;;;;;;;;;;;38.69;28.82;98238.66;1700908;83;20146;-70
2022/08/16 09:17:20;;;;;;;;;;;;;;;38.73;29.05;98236.72;1690332;83;20096;-69
2022/08/16 09:19:47;;;;;;;;;;;;;;;38.79;28.82;98231.05;1713260;83;20091;-67
2022/08/16 09:22:13;;;;;;;;;;;;;;;38.53;28.74;98232.59;1701851;83;21213;-68
2022/08/16 09:24:42;;;;;;;;;;;;;;;38.02;29.68;98230.27;1708490;83;20425;-69
2022/08/16 09:27:09;;;;;;;;;;;;;;;37.70;30.07;98225.74;1713712;83;32827;-70
2022/08/16 09:29:35;;;;;;;;;;;;;;;37.04;30.65;98226.42;1712342;83;20116;-69
2022/08/16 09:32:02;;;;;;;;;;;;;;;36.24;31.87;98229.42;1702194;83;20107;-70
2022/08/16 09:34:29;;;;;;;;;;;;;;;35.57;32.99;98228.89;1716205;83;21164;-69
2022/08/16 09:36:56;;;;;;;;;;;;;;;35.12;34.24;98228.08;1727550;83;20434;-69
2022/08/16 09:39:24;;;;;;;;;;;;;;;35.05;34.81;98229.31;1727994;83;20140;-68
2022/08/16 09:41:54;;;;;;;;;;;;;;;35.05;34.15;98229.31;1713596;83;20141;-69
2022/08/16 09:44:26;;;;;;;;;;;;;;;35.01;34.08;98242.23;1704965;83;20328;-69
2022/08/16 09:46:50;;;;;;;;;;;;;;;34.92;34.61;98242.98;1720073;83;21216;-68
2022/08/16 09:49:17;;;;;;;;;;;;;;;34.60;35.18;98245.55;1718113;83;20135;-68
2022/08/16 09:51:43;;;;;;;;;;;;;;;34.32;35.51;98241.48;1721176;83;20256;-69
2022/08/16 09:54:09;;;;;;;;;;;;;;;34.02;35.84;98249.92;1715438;83;20153;-68
2022/08/16 09:56:38;;;;;;;;;;;;;;;33.52;36.03;98254.58;1710696;83;20451;-69
2022/08/16 09:59:06;;;;;;;;;;;;;;;32.92;36.88;98255.47;1727934;83;21777;-69
2022/08/16 10:01:33;;;;;;;;;;;;;;;32.39;37.92;98263.33;1727964;83;20088;-68
2022/08/16 10:03:59;;;;;;;;;;;;;;;31.94;38.80;98265.26;1715381;83;20093;-69
2022/08/16 10:06:26;;;;;;;;;;;;;;;31.63;39.72;98272.55;1728033;83;20121;-71
2022/08/16 10:08:52;;;;;;;;;;;;;;;31.40;40.09;98281.69;1700655;83;21111;-69
2022/08/16 10:14:04;;;;;;;;;;;;;;;31.21;41.09;98288.19;1697370;83;20092;-68
2022/08/16 10:16:30;;;;;;;;;;;;;;;31.26;40.98;98285.84;1703538;83;20099;-68
2022/08/16 10:18:57;;;;;;;;;;;;;;;31.19;41.41;98286.36;1707672;83;20136;-68
2022/08/16 10:21:23;;;;;;;;;;;;;;;31.12;42.10;98279.22;1695385;83;20142;-70
2022/08/16 10:23:50;;;;;;;;;;;;;;;31.02;43.01;98289.22;1717980;83;21203;-70
2022/08/16 10:26:17;;;;;;;;;;;;;;;30.98;42.83;98300.05;1702442;83;20103;-70
2022/08/16 10:28:43;;;;;;;;;;;;;;;30.91;42.50;98312.12;1699895;83;20176;-69
2022/08/16 10:31:10;;;;;;;;;;;;;;;30.73;42.55;98308.38;1727884;83;20096;-68
2022/08/16 10:33:36;;;;;;;;;;;;;;;30.51;42.92;98309.42;1727756;83;20435;-69
2022/08/16 10:36:05;;;;;;;;;;;;;;;30.37;43.08;98301.98;1699471;83;21856;-69
2022/08/16 10:38:35;;;;;;;;;;;;;;;30.30;43.50;98303.00;1692513;84;20237;-68
2022/08/16 10:41:01;;;;;;;;;;;;;;;30.34;43.81;98306.72;1695874;83;20122;-69
2022/08/16 10:43:28;;;;;;;;;;;;;;;30.43;43.67;98297.35;1695545;83;20111;-69
2022/08/16 10:45:54;;;;;;;;;;;;;;;30.60;43.60;98291.56;1695189;84;20155;-71
2022/08/16 10:48:20;;;;;;;;;;;;;;;30.77;43.85;98295.59;1695180;84;21212;-69
2022/08/16 10:50:47;;;;;;;;;;;;;;;31.03;43.73;98290.81;1690991;84;20099;-71
2022/08/16 10:53:13;;;;;;;;;;;;;;;31.27;42.92;98281.94;1685419;84;20124;-68
2022/08/16 10:55:40;;;;;;;;;;;;;;;31.32;42.76;98281.73;1684937;85;20437;-70
2022/08/16 10:58:10;;;;;;;;;;;;;;;31.32;42.71;98286.67;1690676;84;20100;-68
2022/08/16 11:00:39;;;;;;;;;;;;;;;31.30;42.70;98286.77;1666760;85;21139;-70
2022/08/16 11:03:05;;;;;;;;;;;;;;;31.16;43.06;98281.52;1686308;84;20108;-68
2022/08/16 11:05:33;;;;;;;;;;;;;;;31.08;43.60;98291.42;1685336;85;20143;-69
2022/08/16 11:08:00;;;;;;;;;;;;;;;31.00;44.04;98286.01;1685920;85;20088;-70
2022/08/16 11:10:29;;;;;;;;;;;;;;;30.94;43.95;98288.13;1685683;85;20096;-69
2022/08/16 11:12:56;;;;;;;;;;;;;;;30.93;44.13;98291.20;1686125;84;21135;-68
2022/08/16 11:15:22;;;;;;;;;;;;;;;30.90;43.98;98286.33;1684946;85;20444;-68
2022/08/16 11:17:50;;;;;;;;;;;;;;;30.82;44.28;98287.98;1685831;85;20092;-69
2022/08/16 11:20:16;;;;;;;;;;;;;;;30.76;44.43;98287.14;1685859;85;20108;-68
2022/08/16 11:22:45;;;;;;;;;;;;;;;30.65;44.60;98290.01;1685960;85;20095;-69
2022/08/16 11:25:13;;;;;;;;;;;;;;;30.61;44.63;98280.84;1685530;83;21192;-69
2022/08/16 11:27:39;;;;;;;;;;;;;;;30.64;44.36;98269.17;1685535;85;20414;-70
2022/08/16 11:30:07;;;;;;;;;;;;;;;30.63;44.25;98264.28;1685821;85;20087;-69
2022/08/16 11:32:33;;;;;;;;;;;;;;;30.60;44.76;98267.68;1685789;85;20104;-69
2022/08/16 11:35:03;;;;;;;;;;;;;;;30.61;44.17;98259.66;1680994;85;20447;-69
2022/08/16 11:37:32;;;;;;;;;;;;;;;30.64;44.48;98251.34;1684670;85;21181;-69
2022/08/16 11:39:58;;;;;;;;;;;;;;;30.68;44.14;98246.81;1685262;84;20120;-69
2022/08/16 11:42:24;;;;;;;;;;;;;;;30.79;44.08;98253.55;1687020;84;20151;-68
2022/08/16 11:44:50;;;;;;;;;;;;;;;30.96;44.41;98249.34;1689972;84;20446;-69
2022/08/16 11:47:17;;;;;;;;;;;;;;;31.11;43.50;98258.38;1685441;85;20100;-68
2022/08/16 11:49:44;;;;;;;;;;;;;;;31.12;43.45;98251.19;1685824;85;21150;-70
2022/08/16 11:52:10;;;;;;;;;;;;;;;31.18;42.74;98247.69;1717290;83;20124;-67
2022/08/16 11:54:37;;;;;;;;;;;;;;;31.12;43.08;98247.63;1719293;83;20160;-66
2022/08/16 11:57:04;;;;;;;;;;;;;;;31.04;42.75;98249.87;1700700;83;20107;-70
2022/08/16 11:59:31;;;;;;;;;;;;;;;31.05;42.95;98246.00;1702882;83;20411;-68
2022/08/16 12:01:57;;;;;;;;;;;;;;;31.15;42.69;98251.09;1702359;83;21982;-67
2022/08/16 12:04:24;;;;;;;;;;;;;;;31.15;42.40;98248.34;1717762;83;20140;-67
2022/08/16 12:06:51;;;;;;;;;;;;;;;31.04;42.77;98246.55;1727459;83;20116;-68
2022/08/16 12:09:17;;;;;;;;;;;;;;;30.98;43.38;98247.06;1727630;83;20101;-70
2022/08/16 12:11:44;;;;;;;;;;;;;;;30.92;43.42;98242.92;1695578;83;20181;-66
2022/08/16 12:14:11;;;;;;;;;;;;;;;30.89;43.76;98249.05;1723892;83;21227;-67
2022/08/16 12:16:37;;;;;;;;;;;;;;;30.90;43.91;98245.14;1708565;83;20135;-68
2022/08/16 12:19:05;;;;;;;;;;;;;;;30.86;44.07;98240.91;1706965;83;20148;-70
2022/08/16 12:21:32;;;;;;;;;;;;;;;30.73;44.70;98239.20;1700950;83;20220;-68
2022/08/16 12:23:58;;;;;;;;;;;;;;;30.62;45.01;98243.45;1731735;82;20442;-68
2022/08/16 12:26:25;;;;;;;;;;;;;;;30.48;45.53;98237.37;1751269;82;21141;-68
2022/08/16 12:28:52;;;;;;;;;;;;;;;30.35;46.12;98233.71;1683882;84;20085;-68
2022/08/16 12:31:19;;;;;;;;;;;;;;;30.34;46.55;98232.66;1686313;84;20456;-69
2022/08/16 12:33:46;;;;;;;;;;;;;;;30.30;46.13;98220.71;1676583;84;20449;-68
2022/08/16 12:36:12;;;;;;;;;;;;;;;30.25;46.33;98222.27;1671821;84;20148;-70
2022/08/16 12:38:40;;;;;;;;;;;;;;;30.23;46.41;98227.28;1671812;86;21170;-69
2022/08/16 12:41:07;;;;;;;;;;;;;;;30.24;46.54;98222.86;1671414;86;20125;-70
2022/08/16 12:43:34;;;;;;;;;;;;;;;30.18;46.61;98223.34;1671439;86;20121;-70
2022/08/16 12:46:00;;;;;;;;;;;;;;;30.01;47.45;98213.22;1680013;84;20101;-70
2022/08/16 12:51:17;;;;;;;;;;;;;;;29.89;47.94;98223.51;1666209;85;21174;-71
2022/08/16 12:53:43;;;;;;;;;;;;;;;29.87;47.47;98215.38;1656598;85;20126;-69